Time;durP1;ratioP1;P1;durP2;ratioP2;P2;SDS_P1;SDS_P2;PMS_P1;PMS_P2;Temp;Humidity;BMP_temperature;BMP_pressure;BME280_temperature;BME280_humidity;BME280_pressure;Samples;Min_cycle;Max_cycle;Signal;HPM_P1;HPM_P2
2022/01/06 00:00:13;;;;;;;3.43;2.70;;;;;;;5.09;83.87;94506.86;1777708;81;21006;-63
2022/01/06 00:02:41;;;;;;;4.77;3.07;;;;;;;5.07;84.22;94501.67;1777583;80;21562;-63
2022/01/06 00:05:09;;;;;;;3.87;3.37;;;;;;;5.06;83.79;94500.38;1777948;81;20967;-63
2022/01/06 00:07:37;;;;;;;3.87;2.53;;;;;;;5.12;83.79;94497.23;1777816;81;20982;-63
2022/01/06 00:10:07;;;;;;;2.60;2.00;;;;;;;5.13;83.69;94494.17;1777273;81;21003;-63
2022/01/06 00:13:00;;;;;;;3.77;2.53;;;;;;;5.12;83.45;94499.85;1777610;81;21085;-63
2022/01/06 00:25:57;;;;;;;2.80;1.30;;;;;;;5.08;82.92;94519.53;1777608;80;20994;-63
2022/01/06 00:28:25;;;;;;;2.27;1.70;;;;;;;4.99;83.66;94523.16;1777808;80;21045;-63
2022/01/06 00:30:54;;;;;;;2.33;1.27;;;;;;;4.98;83.28;94519.65;1777592;81;21029;-63
2022/01/06 00:33:21;;;;;;;1.33;1.07;;;;;;;5.01;83.03;94513.96;1777457;80;21511;-63
2022/01/06 00:35:50;;;;;;;1.40;0.97;;;;;;;5.05;82.94;94516.97;1777727;81;21018;-63
2022/01/06 00:38:17;;;;;;;1.13;1.00;;;;;;;5.11;82.88;94526.87;1777687;81;21503;-63
2022/01/06 00:40:44;;;;;;;2.23;0.90;;;;;;;5.17;82.59;94521.56;1777847;81;21017;-63
2022/01/06 00:43:11;;;;;;;1.10;0.90;;;;;;;5.22;82.13;94520.19;1777435;81;21516;-63
2022/01/06 00:45:40;;;;;;;1.57;0.80;;;;;;;5.23;81.77;94510.14;1777605;80;21014;-63
2022/01/06 00:48:12;;;;;;;1.47;1.07;;;;;;;5.26;81.72;94514.46;1777354;80;21085;-63
2022/01/06 00:50:41;;;;;;;2.13;1.00;;;;;;;5.24;81.60;94513.61;1777268;80;21002;-63
2022/01/06 00:53:08;;;;;;;6.63;3.90;;;;;;;5.19;81.47;94513.26;1777484;80;21045;-63
2022/01/06 00:55:37;;;;;;;4.30;2.80;;;;;;;5.17;81.48;94512.41;1777708;81;21045;-63
2022/01/06 00:58:04;;;;;;;2.00;1.60;;;;;;;5.22;81.46;94503.20;1777572;80;21503;-63
2022/01/06 01:00:40;;;;;;;1.20;1.10;;;;;;;5.24;81.51;94504.05;1777581;81;21022;-63
2022/01/06 01:03:14;;;;;;;1.87;1.67;;;;;;;5.21;81.65;94506.23;1777697;81;21456;-63
2022/01/06 01:05:44;;;;;;;2.37;1.40;;;;;;;5.21;81.82;94506.68;1777596;80;20978;-63
2022/01/06 01:08:13;;;;;;;2.17;1.73;;;;;;;5.13;82.87;94494.17;1777867;80;21444;-63
2022/01/06 01:10:42;;;;;;;3.30;2.20;;;;;;;5.07;82.68;94496.45;1777819;80;21073;-63
2022/01/06 01:13:11;;;;;;;3.17;2.17;;;;;;;5.04;83.08;94491.69;1777585;81;21014;-63
2022/01/06 01:15:50;;;;;;;3.57;2.20;;;;;;;5.02;83.04;94491.73;1777437;81;21543;-63
2022/01/06 01:18:18;;;;;;;3.30;2.47;;;;;;;4.96;83.01;94494.42;1776968;81;21506;-63
2022/01/06 01:20:43;;;;;;;2.27;1.80;;;;;;;4.96;82.54;94498.34;1777214;81;21089;-63
2022/01/06 01:23:10;;;;;;;2.20;1.70;;;;;;;4.95;82.31;94501.85;1777817;81;20935;-63
2022/01/06 01:25:37;;;;;;;2.07;1.60;;;;;;;4.90;81.99;94491.45;1777405;81;21050;-63
2022/01/06 01:28:04;;;;;;;4.03;2.00;;;;;;;4.85;81.98;94497.64;1777791;80;21025;-63
2022/01/06 01:30:40;;;;;;;2.13;1.70;;;;;;;4.80;81.99;94502.07;1777701;81;21065;-63
2022/01/06 01:33:03;;;;;;;2.73;2.13;;;;;;;4.75;81.98;94503.44;1775802;81;20962;-64
2022/01/06 01:35:32;;;;;;;2.33;2.00;;;;;;;4.69;82.29;94500.47;1777425;81;21053;-63
2022/01/06 01:37:59;;;;;;;3.53;1.97;;;;;;;4.63;82.92;94510.98;1777812;81;21030;-63
2022/01/06 01:40:26;;;;;;;2.50;1.57;;;;;;;4.65;82.86;94513.59;1777677;80;21154;-64
2022/01/06 01:42:55;;;;;;;2.67;1.90;;;;;;;4.64;83.09;94504.04;1777727;80;21045;-64
2022/01/06 01:45:28;;;;;;;2.60;1.70;;;;;;;4.58;83.33;94497.57;1777420;81;21019;-64
2022/01/06 01:47:52;;;;;;;1.40;1.27;;;;;;;4.61;83.91;94489.27;1777147;80;20998;-64
2022/01/06 01:50:21;;;;;;;2.00;1.77;;;;;;;4.67;83.59;94495.70;1777410;81;21050;-64
2022/01/06 01:52:52;;;;;;;3.73;2.10;;;;;;;4.75;83.27;94492.53;1777862;81;21042;-64
2022/01/06 01:55:26;;;;;;;2.57;1.83;;;;;;;4.78;83.40;94492.48;1777584;80;21057;-64
2022/01/06 01:57:56;;;;;;;5.90;3.17;;;;;;;4.85;83.43;94476.73;1777062;81;21033;-64
2022/01/06 02:00:27;;;;;;;2.30;1.90;;;;;;;4.94;83.16;94477.92;1777693;80;21017;-64
2022/01/06 02:02:58;;;;;;;1.83;1.20;;;;;;;4.98;83.15;94478.27;1777692;80;21475;-64
2022/01/06 02:05:28;;;;;;;1.63;1.40;;;;;;;5.07;83.16;94478.14;1777602;81;20965;-64
2022/01/06 02:07:58;;;;;;;1.30;1.10;;;;;;;5.17;82.99;94471.03;1777424;80;21006;-64
2022/01/06 02:10:29;;;;;;;1.67;1.10;;;;;;;5.16;82.10;94462.74;1777750;80;21001;-64
2022/01/06 02:13:00;;;;;;;1.97;1.30;;;;;;;5.15;82.01;94470.18;1777855;81;21543;-64
2022/01/06 02:15:30;;;;;;;2.13;1.60;;;;;;;5.18;82.29;94459.66;1777823;81;21033;-64
2022/01/06 02:17:57;;;;;;;3.37;1.60;;;;;;;5.23;81.88;94460.91;1777939;81;21092;-64
2022/01/06 02:20:24;;;;;;;2.27;1.50;;;;;;;5.12;81.09;94466.31;1777655;80;21071;-64
2022/01/06 02:22:53;;;;;;;1.80;1.70;;;;;;;5.13;81.46;94482.41;1777565;81;20983;-64
2022/01/06 02:25:30;;;;;;;2.40;1.20;;;;;;;5.08;81.65;94488.16;1777910;80;20994;-64
2022/01/06 02:28:00;;;;;;;2.43;1.50;;;;;;;5.02;81.18;94489.56;1777964;80;20988;-63
2022/01/06 02:30:32;;;;;;;1.93;1.73;;;;;;;4.98;81.36;94497.87;1777761;81;21005;-63
2022/01/06 02:33:01;;;;;;;3.52;2.60;;;;;;;4.98;81.55;94504.41;1778096;80;21441;-63
2022/01/06 02:35:29;;;;;;;4.20;2.83;;;;;;;4.98;81.69;94509.19;1777841;81;21451;-63
2022/01/06 02:37:57;;;;;;;4.53;2.80;;;;;;;4.97;81.77;94521.00;1777478;81;21531;-63
2022/01/06 02:40:26;;;;;;;6.67;2.93;;;;;;;4.94;82.02;94527.13;1777946;81;20981;-63
2022/01/06 02:42:56;;;;;;;4.47;3.10;;;;;;;4.86;82.27;94527.66;1777918;81;21002;-63
2022/01/06 02:45:29;;;;;;;4.40;3.23;;;;;;;4.82;82.42;94528.61;1777723;81;21082;-63
2022/01/06 02:47:57;;;;;;;3.10;2.45;;;;;;;4.73;82.99;94536.11;1777987;81;20958;-64
2022/01/06 02:50:26;;;;;;;2.77;2.10;;;;;;;4.65;83.16;94551.03;1777560;81;20986;-63
2022/01/06 02:52:52;;;;;;;2.60;1.93;;;;;;;4.62;83.21;94557.61;1778173;80;20985;-64
2022/01/06 02:55:20;;;;;;;2.87;1.90;;;;;;;4.54;83.27;94562.06;1749673;80;21045;-64
2022/01/06 02:57:46;;;;;;;1.97;1.80;;;;;;;4.57;82.96;94565.94;1787470;80;21002;-64
2022/01/06 03:00:17;;;;;;;3.63;2.70;;;;;;;4.54;82.70;94565.54;1787566;80;21044;-64
2022/01/06 03:02:46;;;;;;;3.83;2.93;;;;;;;4.55;82.82;94562.03;1787865;80;21476;-64
2022/01/06 03:05:17;;;;;;;3.10;2.80;;;;;;;4.56;82.58;94560.27;1787499;80;21128;-64
2022/01/06 03:07:46;;;;;;;3.90;2.83;;;;;;;4.54;82.45;94565.98;1787650;80;21052;-64
2022/01/06 03:10:16;;;;;;;4.43;3.57;;;;;;;4.50;82.47;94571.67;1787901;80;21535;-64
2022/01/06 03:12:45;;;;;;;4.17;3.13;;;;;;;4.51;82.37;94568.19;1787599;80;21820;-63
2022/01/06 03:15:16;;;;;;;5.13;4.00;;;;;;;4.53;82.21;94565.09;1787809;80;21001;-63
2022/01/06 03:17:50;;;;;;;6.47;4.57;;;;;;;4.54;82.32;94558.15;1757183;80;21507;-63
2022/01/06 03:20:19;;;;;;;6.13;4.03;;;;;;;4.54;82.41;94562.92;1787443;80;21009;-63
2022/01/06 03:22:46;;;;;;;6.77;5.53;;;;;;;4.53;82.68;94562.93;1787709;80;21510;-63
2022/01/06 03:25:16;;;;;;;6.80;5.70;;;;;;;4.48;82.70;94556.45;1787805;80;20982;-63
2022/01/06 03:27:43;;;;;;;6.43;4.60;;;;;;;4.48;82.71;94559.06;1787833;80;21018;-63
2022/01/06 03:30:17;;;;;;;6.27;5.37;;;;;;;4.48;82.89;94568.20;1787768;80;21005;-63
2022/01/06 03:32:45;;;;;;;7.43;5.20;;;;;;;4.40;83.33;94564.82;1787589;80;21013;-63
2022/01/06 03:35:16;;;;;;;6.60;5.63;;;;;;;4.44;83.22;94561.75;1787516;80;20974;-63
2022/01/06 03:37:45;;;;;;;7.57;6.10;;;;;;;4.43;83.10;94563.47;1787913;80;21009;-63
2022/01/06 03:40:12;;;;;;;7.40;6.07;;;;;;;4.42;83.24;94568.29;1787647;80;20982;-63
2022/01/06 03:42:40;;;;;;;8.30;6.50;;;;;;;4.41;83.37;94565.68;1787470;80;21072;-63
2022/01/06 03:45:11;;;;;;;6.93;6.07;;;;;;;4.36;83.65;94567.06;1788045;80;20981;-63
2022/01/06 03:47:38;;;;;;;9.87;7.23;;;;;;;4.27;84.23;94578.45;1787684;80;21013;-63
2022/01/06 03:50:07;;;;;;;8.13;6.93;;;;;;;4.27;84.33;94574.98;1787475;80;21005;-63
2022/01/06 03:52:33;;;;;;;9.47;7.47;;;;;;;4.24;84.69;94573.72;1787687;80;21507;-63
2022/01/06 03:55:04;;;;;;;9.07;6.97;;;;;;;4.17;85.18;94572.05;1787304;80;21074;-63
2022/01/06 03:57:31;;;;;;;7.60;6.50;;;;;;;4.16;85.05;94571.20;1787672;80;21017;-64
2022/01/06 03:59:57;;;;;;;7.93;6.73;;;;;;;4.11;85.48;94563.85;1787827;80;21447;-64
2022/01/06 04:02:23;;;;;;;8.50;6.07;;;;;;;4.08;85.56;94554.30;1787873;80;20973;-64
2022/01/06 04:04:50;;;;;;;9.13;7.40;;;;;;;4.08;85.89;94558.64;1787417;80;21483;-64
2022/01/06 04:07:16;;;;;;;9.57;6.70;;;;;;;4.09;85.62;94548.19;1787662;80;21045;-63
2022/01/06 04:09:46;;;;;;;8.53;7.00;;;;;;;4.06;85.75;94540.40;1787444;80;21040;-63
2022/01/06 04:12:15;;;;;;;6.40;5.20;;;;;;;4.06;85.50;94544.77;1787651;80;21586;-64
2022/01/06 04:14:42;;;;;;;7.60;6.70;;;;;;;4.06;85.65;94556.06;1787363;80;21036;-64
2022/01/06 04:17:10;;;;;;;10.17;6.80;;;;;;;4.08;85.37;94563.86;1787707;80;21468;-64
2022/01/06 04:19:40;;;;;;;9.80;7.57;;;;;;;4.13;85.45;94549.02;1787629;80;21069;-64
2022/01/06 04:22:06;;;;;;;10.33;7.33;;;;;;;4.20;85.32;94552.43;1787454;80;21037;-64
2022/01/06 04:24:34;;;;;;;7.47;6.20;;;;;;;4.21;85.30;94553.73;1787509;80;21562;-63
2022/01/06 04:27:02;;;;;;;7.43;6.37;;;;;;;4.22;85.10;94559.37;1787725;80;21001;-64
2022/01/06 04:29:29;;;;;;;11.87;7.87;;;;;;;4.25;85.07;94561.08;1787718;80;21002;-63
2022/01/06 04:31:55;;;;;;;8.97;7.17;;;;;;;4.28;85.03;94558.02;1787787;80;21423;-64
2022/01/06 04:34:22;;;;;;;10.77;7.67;;;;;;;4.30;84.81;94549.70;1787342;80;21111;-64
2022/01/06 04:36:53;;;;;;;8.80;7.37;;;;;;;4.36;84.66;94554.01;1787621;80;21036;-64
2022/01/06 04:39:17;;;;;;;8.13;7.00;;;;;;;4.38;84.63;94552.22;1786814;80;21017;-64
2022/01/06 04:41:44;;;;;;;9.50;7.30;;;;;;;4.40;84.52;94550.91;1787608;80;21057;-64
2022/01/06 04:44:11;;;;;;;10.17;7.90;;;;;;;4.45;84.52;94553.02;1787690;80;20980;-64
2022/01/06 04:46:38;;;;;;;9.77;7.83;;;;;;;4.48;84.47;94551.67;1787611;80;21014;-64
2022/01/06 04:49:05;;;;;;;11.03;8.33;;;;;;;4.45;84.32;94548.66;1787384;80;21021;-64
2022/01/06 04:51:33;;;;;;;9.27;7.50;;;;;;;4.40;84.23;94545.69;1787549;80;21013;-64
2022/01/06 04:54:00;;;;;;;9.27;7.80;;;;;;;4.33;84.27;94544.46;1788108;80;21025;-64
2022/01/06 04:56:27;;;;;;;8.50;7.03;;;;;;;4.26;84.49;94540.63;1796201;80;20985;-64
2022/01/06 04:58:53;;;;;;;8.03;7.20;;;;;;;4.16;84.90;94538.97;1796288;79;21002;-64
2022/01/06 05:01:22;;;;;;;10.47;8.70;;;;;;;4.12;84.92;94532.94;1796742;79;20981;-64
2022/01/06 05:03:48;;;;;;;10.03;8.40;;;;;;;4.07;85.44;94542.56;1796345;79;21008;-64
2022/01/06 05:06:15;;;;;;;9.30;7.17;;;;;;;4.02;85.60;94547.83;1796218;79;20993;-64
2022/01/06 05:08:43;;;;;;;9.90;7.77;;;;;;;4.01;85.70;94549.16;1795943;80;20979;-64
2022/01/06 05:11:09;;;;;;;9.23;7.43;;;;;;;4.01;85.61;94548.72;1764727;80;21530;-64
2022/01/06 05:13:36;;;;;;;9.10;7.27;;;;;;;4.02;85.80;94556.11;1796356;79;20981;-64
2022/01/06 05:16:04;;;;;;;7.67;6.70;;;;;;;3.99;85.78;94559.61;1796334;79;21455;-64
2022/01/06 05:18:30;;;;;;;8.90;6.70;;;;;;;4.00;86.12;94564.38;1796143;80;20981;-64
2022/01/06 05:20:57;;;;;;;7.70;6.83;;;;;;;4.03;85.96;94575.67;1796151;80;21005;-64
2022/01/06 05:23:24;;;;;;;10.00;7.70;;;;;;;4.02;86.02;94571.77;1796037;79;21009;-64
2022/01/06 05:25:54;;;;;;;11.30;8.33;;;;;;;4.01;86.09;94569.59;1796251;80;21518;-64
2022/01/06 05:28:21;;;;;;;10.33;8.27;;;;;;;4.03;85.89;94573.06;1796371;80;21005;-63
2022/01/06 05:30:48;;;;;;;13.07;8.93;;;;;;;3.97;86.38;94581.38;1796316;80;21419;-64
2022/01/06 05:33:14;;;;;;;16.50;10.47;;;;;;;3.88;86.62;94575.79;1796260;80;21048;-64
2022/01/06 05:35:41;;;;;;;15.57;11.23;;;;;;;3.87;86.62;94580.60;1795854;80;21005;-64
2022/01/06 05:38:07;;;;;;;15.00;10.20;;;;;;;3.87;86.58;94585.81;1796348;79;21017;-64
2022/01/06 05:40:34;;;;;;;15.77;10.37;;;;;;;3.80;86.80;94600.66;1796283;80;20973;-64
2022/01/06 05:43:03;;;;;;;12.30;8.67;;;;;;;3.76;86.88;94597.66;1796180;80;21008;-64
2022/01/06 05:45:30;;;;;;;6.50;5.60;;;;;;;3.74;86.70;94594.64;1765164;80;20977;-64
2022/01/06 05:47:59;;;;;;;5.97;4.87;;;;;;;3.67;86.50;94604.25;1796124;80;20994;-64
2022/01/06 05:50:27;;;;;;;5.23;4.27;;;;;;;3.63;86.12;94602.12;1796187;80;21048;-64
2022/01/06 05:52:57;;;;;;;4.30;3.23;;;;;;;3.50;85.26;94612.19;1796124;80;21538;-63
2022/01/06 05:55:23;;;;;;;4.27;3.30;;;;;;;3.41;84.74;94613.58;1791516;80;21009;-63
2022/01/06 05:57:50;;;;;;;4.40;3.37;;;;;;;3.31;84.61;94624.95;1787587;80;21503;-63
2022/01/06 06:00:18;;;;;;;3.73;2.73;;;;;;;3.19;84.79;94624.13;1787718;80;21073;-63
2022/01/06 06:02:45;;;;;;;6.57;4.77;;;;;;;3.10;85.11;94629.83;1787690;80;20997;-63
2022/01/06 06:05:11;;;;;;;4.70;3.30;;;;;;;3.04;85.09;94631.59;1787558;80;21069;-63
2022/01/06 06:07:38;;;;;;;5.70;4.10;;;;;;;3.03;84.98;94638.14;1787600;80;20974;-63
2022/01/06 06:10:08;;;;;;;5.70;3.60;;;;;;;2.92;85.07;94641.22;1787871;80;21002;-63
2022/01/06 06:12:35;;;;;;;3.90;3.07;;;;;;;2.76;84.95;94643.89;1787601;80;21009;-63
2022/01/06 06:15:06;;;;;;;4.17;2.80;;;;;;;2.65;84.67;94661.75;1787595;80;21428;-63
2022/01/06 06:17:32;;;;;;;3.13;2.50;;;;;;;2.49;84.37;94655.25;1787784;80;21021;-63
2022/01/06 06:19:59;;;;;;;2.60;2.40;;;;;;;2.39;84.54;94660.05;1787259;80;21001;-63
2022/01/06 06:22:25;;;;;;;2.80;2.17;;;;;;;2.33;84.65;94683.52;1787284;80;20998;-64
2022/01/06 06:24:52;;;;;;;4.00;2.30;;;;;;;2.24;84.91;94683.52;1787347;80;21010;-64
2022/01/06 06:27:18;;;;;;;3.47;2.53;;;;;;;2.24;85.40;94683.52;1787667;80;21475;-63
2022/01/06 06:29:47;;;;;;;3.07;2.10;;;;;;;2.31;85.67;94679.59;1787699;80;21033;-63
2022/01/06 06:32:13;;;;;;;3.00;2.20;;;;;;;2.35;85.46;94686.98;1787285;80;21550;-63
2022/01/06 06:34:42;;;;;;;5.20;3.00;;;;;;;2.37;85.36;94698.27;1787567;80;21495;-64
2022/01/06 06:37:08;;;;;;;3.60;2.97;;;;;;;2.36;84.59;94694.77;1787027;80;21571;-64
2022/01/06 06:39:35;;;;;;;2.77;2.07;;;;;;;2.31;84.09;94702.16;1787518;80;21452;-64
2022/01/06 06:42:02;;;;;;;4.50;3.47;;;;;;;2.27;84.01;94704.32;1787453;80;21010;-64
2022/01/06 06:44:28;;;;;;;7.50;4.50;;;;;;;2.25;84.12;94708.69;1787590;80;21503;-63
2022/01/06 06:46:55;;;;;;;15.13;8.30;;;;;;;2.22;84.19;94712.57;1787333;80;21021;-63
2022/01/06 06:49:22;;;;;;;14.70;8.80;;;;;;;2.19;84.27;94710.84;1787248;80;21002;-63
2022/01/06 06:51:51;;;;;;;6.37;4.30;;;;;;;2.16;84.22;94716.91;1787479;80;20985;-63
2022/01/06 06:54:17;;;;;;;3.97;2.40;;;;;;;2.11;84.19;94727.76;1787763;80;21049;-63
2022/01/06 06:56:44;;;;;;;2.60;2.37;;;;;;;2.07;84.16;94727.34;1795875;80;20997;-64
2022/01/06 06:59:10;;;;;;;4.93;2.70;;;;;;;2.09;84.38;94736.43;1796196;79;21416;-64
2022/01/06 07:01:39;;;;;;;4.03;2.60;;;;;;;2.07;84.35;94739.05;1796355;79;21510;-63
2022/01/06 07:04:05;;;;;;;2.40;1.67;;;;;;;2.09;84.53;94742.53;1796164;79;20981;-64
2022/01/06 07:06:32;;;;;;;2.63;2.23;;;;;;;2.05;84.47;94740.78;1796243;80;21008;-64
2022/01/06 07:09:00;;;;;;;3.23;2.80;;;;;;;2.05;84.45;94750.33;1796114;79;21478;-64
2022/01/06 07:11:27;;;;;;;2.90;2.40;;;;;;;2.04;84.48;94745.56;1796375;79;21029;-64
2022/01/06 07:13:54;;;;;;;3.10;2.40;;;;;;;2.03;84.78;94756.82;1796088;79;21036;-64
2022/01/06 07:16:20;;;;;;;4.80;2.40;;;;;;;2.08;84.81;94756.39;1796422;79;21526;-63
2022/01/06 07:18:49;;;;;;;3.60;2.57;;;;;;;2.12;84.77;94762.48;1796413;80;21084;-63
2022/01/06 07:21:17;;;;;;;3.83;2.37;;;;;;;2.15;84.54;94765.08;1796443;79;20973;-64
2022/01/06 07:23:43;;;;;;;4.80;1.93;;;;;;;2.13;84.40;94750.75;1796342;79;21510;-63
2022/01/06 07:26:10;;;;;;;2.80;2.23;;;;;;;2.10;84.53;94755.96;1796495;79;21000;-63
2022/01/06 07:28:36;;;;;;;3.07;2.27;;;;;;;2.13;84.87;94768.97;1796088;79;21024;-64
2022/01/06 07:31:04;;;;;;;3.87;3.20;;;;;;;2.18;84.97;94774.63;1796310;80;21033;-63
2022/01/06 07:33:32;;;;;;;25.77;10.60;;;;;;;2.18;85.03;94777.22;1796319;80;21048;-63
2022/01/06 07:35:58;;;;;;;2.90;1.90;;;;;;;2.19;84.68;94775.91;1796229;80;20969;-63
2022/01/06 07:38:25;;;;;;;2.20;1.30;;;;;;;2.19;85.20;94771.14;1795969;80;21022;-64
2022/01/06 07:40:51;;;;;;;3.07;2.13;;;;;;;2.22;85.48;94772.43;1796444;80;21490;-63
2022/01/06 07:43:20;;;;;;;3.33;2.07;;;;;;;2.20;85.77;94768.98;1796057;79;21013;-63
2022/01/06 07:45:46;;;;;;;6.60;2.90;;;;;;;2.23;85.80;94788.50;1795960;80;21471;-63
2022/01/06 07:48:25;;;;;;;2.90;2.33;;;;;;;2.24;85.63;94785.88;1796308;80;21000;-63
2022/01/06 07:50:47;;;;;;;2.20;1.95;;;;;;;2.24;85.87;94803.23;1795441;80;21048;-63
2022/01/06 07:53:14;;;;;;;2.83;2.27;;;;;;;2.28;85.77;94803.69;1796270;80;21024;-63
2022/01/06 07:55:40;;;;;;;3.37;1.87;;;;;;;2.31;85.80;94809.75;1796327;80;21044;-63
2022/01/06 07:58:07;;;;;;;4.70;3.33;;;;;;;2.30;85.52;94810.63;1796364;80;21530;-63
2022/01/06 08:00:33;;;;;;;4.70;2.60;;;;;;;2.29;85.75;94819.31;1795975;80;21064;-63
2022/01/06 08:03:00;;;;;;;5.40;3.47;;;;;;;2.26;85.64;94814.08;1796042;80;21052;-63
2022/01/06 08:05:27;;;;;;;4.70;2.90;;;;;;;2.32;85.65;94829.73;1795895;80;21570;-65
2022/01/06 08:07:55;;;;;;;5.67;3.90;;;;;;;2.33;85.52;94833.19;1796253;80;21119;-63
2022/01/06 08:10:23;;;;;;;4.17;3.03;;;;;;;2.35;85.32;94834.06;1796064;80;21017;-63
2022/01/06 08:12:52;;;;;;;3.97;2.80;;;;;;;2.35;85.35;94839.27;1796036;79;21495;-63
2022/01/06 08:15:18;;;;;;;3.37;2.83;;;;;;;2.38;85.42;94841.43;1796357;80;20981;-63
2022/01/06 08:17:45;;;;;;;6.63;3.87;;;;;;;2.38;85.48;94844.03;1796252;80;21479;-63
2022/01/06 08:20:12;;;;;;;9.53;5.70;;;;;;;2.38;85.14;94849.23;1795944;80;21067;-63
2022/01/06 08:22:41;;;;;;;11.23;5.97;;;;;;;2.36;85.23;94851.41;1796148;80;21005;-63
2022/01/06 08:25:10;;;;;;;5.90;3.97;;;;;;;2.40;85.03;94858.80;1796374;80;21514;-64
2022/01/06 08:27:36;;;;;;;6.37;4.37;;;;;;;2.47;85.29;94862.72;1796204;79;21486;-63
2022/01/06 08:30:05;;;;;;;4.17;3.10;;;;;;;2.45;85.35;94877.47;1796557;80;21040;-64
2022/01/06 08:32:32;;;;;;;4.07;2.60;;;;;;;2.46;85.27;94871.37;1796433;80;20969;-64
2022/01/06 08:34:59;;;;;;;2.23;1.60;;;;;;;2.51;85.40;94872.69;1796397;80;21033;-64
2022/01/06 08:37:25;;;;;;;2.27;2.00;;;;;;;2.45;85.18;94865.75;1796069;80;20992;-64
2022/01/06 08:39:54;;;;;;;3.27;2.87;;;;;;;2.39;84.83;94856.61;1796358;80;21009;-64
2022/01/06 08:42:20;;;;;;;3.17;2.50;;;;;;;2.41;84.88;94877.02;1796306;79;20981;-64
2022/01/06 08:44:49;;;;;;;3.40;2.97;;;;;;;2.28;85.04;94876.12;1796446;79;21033;-64
2022/01/06 08:47:16;;;;;;;4.60;2.90;;;;;;;2.24;85.03;94874.81;1796186;80;20977;-63
2022/01/06 08:49:45;;;;;;;3.50;2.70;;;;;;;2.11;85.29;94885.63;1796239;80;21032;-63
2022/01/06 08:52:11;;;;;;;3.10;2.80;;;;;;;2.05;85.28;94885.19;1795855;80;20993;-63
2022/01/06 08:54:38;;;;;;;3.13;2.33;;;;;;;1.98;85.75;94873.03;1796364;80;21000;-63
2022/01/06 08:57:05;;;;;;;3.37;2.70;;;;;;;1.99;85.58;94883.00;1778665;80;21073;-64
2022/01/06 08:59:32;;;;;;;3.13;2.47;;;;;;;2.00;85.80;94897.32;1777838;81;20998;-63
2022/01/06 09:02:02;;;;;;;3.03;2.40;;;;;;;1.98;85.90;94899.05;1777809;81;21017;-64
2022/01/06 09:04:28;;;;;;;3.63;2.73;;;;;;;1.99;86.28;94889.50;1777745;80;20975;-64
2022/01/06 09:06:55;;;;;;;6.57;4.50;;;;;;;2.03;86.41;94880.41;1777700;81;21042;-64
2022/01/06 09:09:22;;;;;;;6.17;3.97;;;;;;;2.13;86.60;94877.41;1777696;80;21010;-63
2022/01/06 09:11:51;;;;;;;4.40;2.93;;;;;;;2.20;86.61;94882.20;1777453;81;21010;-63
2022/01/06 09:14:18;;;;;;;4.53;2.77;;;;;;;2.21;86.88;94880.88;1777605;80;21045;-63
2022/01/06 09:16:44;;;;;;;3.30;1.87;;;;;;;2.27;86.96;94878.72;1777578;81;21021;-63
2022/01/06 09:19:13;;;;;;;2.67;1.87;;;;;;;2.32;86.87;94879.19;1777918;80;20998;-64
2022/01/06 09:21:39;;;;;;;1.10;0.97;;;;;;;2.41;86.88;94877.02;1777776;80;21020;-63
2022/01/06 09:24:07;;;;;;;2.90;1.60;;;;;;;2.47;86.27;94878.34;1777563;81;20994;-63
2022/01/06 09:26:35;;;;;;;2.03;1.13;;;;;;;2.55;86.15;94872.70;1777946;80;21041;-63
2022/01/06 09:29:07;;;;;;;8.93;5.00;;;;;;;2.69;86.07;94867.91;1777442;81;21010;-63
2022/01/06 09:31:37;;;;;;;2.43;1.63;;;;;;;2.80;85.77;94874.01;1777941;80;21009;-63
2022/01/06 09:34:04;;;;;;;1.77;1.30;;;;;;;2.89;84.94;94878.33;1777754;80;21029;-64
2022/01/06 09:36:33;;;;;;;1.63;1.03;;;;;;;2.99;84.96;94871.80;1777677;80;20974;-63
2022/01/06 09:39:01;;;;;;;0.73;0.60;;;;;;;3.09;84.50;94871.36;1777493;81;21021;-63
2022/01/06 09:41:27;;;;;;;1.23;0.80;;;;;;;3.12;83.38;94880.47;1777862;80;20993;-63
2022/01/06 09:43:55;;;;;;;1.77;1.03;;;;;;;3.21;83.81;94879.61;1777548;81;21525;-63
2022/01/06 09:46:23;;;;;;;3.93;2.23;;;;;;;3.22;83.35;94887.84;1777505;80;21049;-63
2022/01/06 09:48:51;;;;;;;3.27;2.50;;;;;;;3.27;83.00;94893.05;1778229;80;21017;-63
2022/01/06 09:51:18;;;;;;;4.70;3.33;;;;;;;3.13;82.79;94895.70;1777508;80;21002;-64
2022/01/06 09:53:44;;;;;;;4.53;3.23;;;;;;;3.17;83.12;94901.32;1777713;80;20990;-63
2022/01/06 09:56:11;;;;;;;4.33;2.90;;;;;;;3.21;83.51;94912.19;1777603;80;21041;-63
2022/01/06 09:58:38;;;;;;;4.70;3.03;;;;;;;3.24;83.60;94906.52;1777844;81;21010;-63
2022/01/06 10:01:04;;;;;;;4.93;2.77;;;;;;;3.24;83.82;94907.83;1777756;81;21007;-63
2022/01/06 10:03:37;;;;;;;4.23;3.47;;;;;;;3.24;84.18;94909.58;1777423;81;21526;-63
2022/01/06 10:06:21;;;;;;;4.83;3.60;;;;;;;3.30;84.15;94906.97;1777790;81;21065;-63
2022/01/06 10:08:59;;;;;;;;;;;;;;;3.31;83.41;94911.30;1780449;81;20966;-63
2022/01/06 10:11:30;;;;;;;4.50;3.10;;;;;;;3.34;83.34;94920.42;1761769;81;20398;-63
2022/01/06 10:14:06;;;;;;;3.87;2.57;;;;;;;3.36;83.30;94916.08;1777582;80;21045;-63
2022/01/06 10:16:34;;;;;;;4.87;3.30;;;;;;;3.40;82.94;94928.66;1777790;80;21101;-63
2022/01/06 10:19:14;;;;;;;4.73;2.70;;;;;;;3.40;82.94;94926.95;1777647;81;21022;-63
2022/01/06 10:21:47;;;;;;;4.03;2.60;;;;;;;3.45;82.75;94926.50;1775854;81;21021;-63
2022/01/06 10:24:21;;;;;;;4.07;2.97;;;;;;;3.50;82.65;94925.16;1777800;81;21033;-64
2022/01/06 10:27:02;;;;;;;3.23;2.70;;;;;;;3.53;82.60;94923.88;1777685;80;20993;-63
2022/01/06 10:29:33;;;;;;;6.97;3.90;;;;;;;3.56;82.17;94933.44;1777736;80;21113;-63
2022/01/06 10:32:10;;;;;;;10.80;6.10;;;;;;;3.54;81.48;94936.47;1777750;81;20958;-64
2022/01/06 10:34:45;;;;;;;11.60;6.97;;;;;;;3.50;81.35;94934.29;1777340;80;20998;-63
2022/01/06 10:37:40;;;;;;;23.27;12.97;;;;;;;3.49;81.28;94924.74;1777653;81;20986;-63
2022/01/06 10:40:23;;;;;;;25.10;13.33;;;;;;;3.51;81.46;94924.30;1777194;81;21535;-65
2022/01/06 10:42:54;;;;;;;14.20;7.83;;;;;;;3.57;81.59;94933.85;1777990;81;21016;-63
2022/01/06 10:45:25;;;;;;;8.53;3.60;;;;;;;3.60;81.46;94937.75;1777851;81;21037;-63
2022/01/06 10:47:55;;;;;;;16.20;7.90;;;;;;;3.57;80.68;94939.06;1777932;80;20989;-63
2022/01/06 10:50:36;;;;;;;21.50;12.50;;;;;;;3.59;81.64;94942.11;1777871;80;21077;-63
2022/01/06 10:53:09;;;;;;;10.00;7.10;;;;;;;3.65;81.64;94927.77;1777419;81;21077;-63
2022/01/06 10:55:39;;;;;;;10.10;7.37;;;;;;;3.63;81.24;94939.94;1778588;80;21014;-63
2022/01/06 10:58:11;;;;;;;8.07;6.20;;;;;;;3.62;81.37;94947.30;1787696;80;21013;-63
2022/01/06 11:00:55;;;;;;;6.87;4.70;;;;;;;3.60;81.68;94945.16;1787752;80;20986;-63
2022/01/06 11:03:25;;;;;;;6.65;4.95;;;;;;;3.62;81.91;94955.58;1787646;80;21052;-63
2022/01/06 11:05:55;;;;;;;8.83;6.40;;;;;;;3.64;81.95;94953.84;1787956;80;21069;-63
2022/01/06 11:08:28;;;;;;;5.40;4.13;;;;;;;3.71;82.19;94965.14;1787721;80;20997;-63
2022/01/06 11:13:41;;;;;;;1.90;1.70;;;;;;;3.71;79.29;94975.58;1767138;80;20385;-63
2022/01/06 11:16:12;;;;;;;1.40;1.13;;;;;;;3.72;79.01;94971.64;1787678;80;21017;-63
2022/01/06 11:18:43;;;;;;;1.77;0.70;;;;;;;3.74;77.89;94975.12;1782793;80;21018;-63
2022/01/06 11:21:26;;;;;;;2.70;1.40;;;;;;;3.74;76.61;94987.30;1787865;80;21482;-63
2022/01/06 11:24:24;;;;;;;1.55;1.15;;;;;;;3.69;76.28;94988.17;1784954;80;21049;-63
2022/01/06 11:27:06;;;;;;;1.10;0.97;;;;;;;3.59;75.48;94988.20;1787765;80;21480;-65
2022/01/06 11:29:38;;;;;;;1.53;0.80;;;;;;;3.60;75.16;94992.53;1787678;80;21017;-63
2022/01/06 11:32:23;;;;;;;1.77;1.40;;;;;;;3.62;76.60;95000.78;1787864;80;21005;-63
2022/01/06 11:35:03;;;;;;;1.10;0.90;;;;;;;3.53;75.09;94994.70;1787488;80;21005;-63
2022/01/06 11:37:49;;;;;;;1.60;0.87;;;;;;;3.50;75.39;94989.50;1787620;80;21013;-63
2022/01/06 11:40:33;;;;;;;0.50;0.50;;;;;;;3.44;75.39;94988.64;1787923;80;21048;-65
2022/01/06 11:43:03;;;;;;;2.05;1.50;;;;;;;3.42;75.70;94993.42;1787988;80;21440;-63
2022/01/06 11:45:29;;;;;;;1.83;1.43;;;;;;;3.35;75.77;94986.47;1787710;80;21038;-63
2022/01/06 11:48:06;;;;;;;2.77;1.67;;;;;;;3.32;76.40;94991.25;1787704;80;20953;-63
2022/01/06 11:50:39;;;;;;;2.90;1.40;;;;;;;3.22;75.28;94993.42;1787638;80;21009;-67
2022/01/06 11:53:09;;;;;;;2.30;1.80;;;;;;;3.18;76.49;94999.09;1787333;80;21503;-63
2022/01/06 11:55:42;;;;;;;1.60;1.03;;;;;;;3.17;75.93;95009.06;1787762;80;21060;-63
2022/01/06 11:58:10;;;;;;;;;;;;;;;3.02;75.15;95010.36;1790344;80;21077;-64
2022/01/06 12:00:42;;;;;;;3.80;2.60;;;;;;;3.02;75.90;95011.25;1787927;80;20092;-63
2022/01/06 12:03:11;;;;;;;1.40;1.13;;;;;;;3.06;76.51;95014.72;1787716;80;21017;-63